Ackworth, Iowa
Current Conditions -  °F | °C
As of 7:54 PM on Friday 31 Oct 2014 (Local Time) from KDSM Reporting Station
Clear Clear  
Wind Chill:   Ceiling: Unl
Heat Index:   Visibility: 10mi
Dew Point: -8°   Wind: 5mph
Humidity: 46%   Direction: 20°NNE
Pressure: 30.46"   Gusts: NA
Location:  41.37°N, 93.47°W
Report Text: KDSM 010054Z 02004KT 10SM CLR 03/M08 A3046 RMK AO2 SLP325 T00281078
Loading
Personal Weather Stations






























Interactive Weather Map
Tropical Storm Tracking
New forecast layout! Learn more

10-Day Weather Forecast

Advertisements
Track Severe Weather on mobile